sensor_id;sensor_type;location;lat;lon;timestamp;P1;durP1;ratioP1;P2;durP2;ratioP2
22070;SDS011;11200;51.488;6.668;2022-09-20T00:02:17;3.58;;;1.35;;
22070;SDS011;11200;51.488;6.668;2022-09-20T00:04:42;3.03;;;1.52;;
22070;SDS011;11200;51.488;6.668;2022-09-20T00:07:08;2.53;;;1.30;;
22070;SDS011;11200;51.488;6.668;2022-09-20T00:09:33;1.33;;;1.15;;
22070;SDS011;11200;51.488;6.668;2022-09-20T00:11:59;2.80;;;1.50;;
22070;SDS011;11200;51.488;6.668;2022-09-20T00:14:25;4.65;;;1.63;;
22070;SDS011;11200;51.488;6.668;2022-09-20T00:16:50;4.82;;;1.60;;
22070;SDS011;11200;51.488;6.668;2022-09-20T00:19:17;2.92;;;1.35;;
22070;SDS011;11200;51.488;6.668;2022-09-20T00:21:45;2.00;;;1.13;;
22070;SDS011;11200;51.488;6.668;2022-09-20T00:24:11;2.85;;;1.50;;
22070;SDS011;11200;51.488;6.668;2022-09-20T00:26:37;2.30;;;1.38;;
22070;SDS011;11200;51.488;6.668;2022-09-20T00:29:03;2.28;;;1.30;;
22070;SDS011;11200;51.488;6.668;2022-09-20T00:31:29;3.05;;;1.40;;
22070;SDS011;11200;51.488;6.668;2022-09-20T00:33:55;4.40;;;1.40;;
22070;SDS011;11200;51.488;6.668;2022-09-20T00:36:40;3.25;;;1.60;;
22070;SDS011;11200;51.488;6.668;2022-09-20T00:39:08;2.65;;;1.23;;
22070;SDS011;11200;51.488;6.668;2022-09-20T00:41:36;2.30;;;1.10;;
22070;SDS011;11200;51.488;6.668;2022-09-20T00:44:01;2.42;;;1.40;;
22070;SDS011;11200;51.488;6.668;2022-09-20T00:46:47;2.30;;;1.30;;
22070;SDS011;11200;51.488;6.668;2022-09-20T00:49:14;2.60;;;1.20;;
22070;SDS011;11200;51.488;6.668;2022-09-20T00:51:46;2.15;;;1.23;;
22070;SDS011;11200;51.488;6.668;2022-09-20T00:54:16;2.17;;;1.45;;
22070;SDS011;11200;51.488;6.668;2022-09-20T00:56:44;2.88;;;1.33;;
22070;SDS011;11200;51.488;6.668;2022-09-20T00:59:13;2.17;;;1.30;;
22070;SDS011;11200;51.488;6.668;2022-09-20T01:01:42;2.80;;;1.35;;
22070;SDS011;11200;51.488;6.668;2022-09-20T01:04:10;2.55;;;1.30;;
22070;SDS011;11200;51.488;6.668;2022-09-20T01:06:38;2.30;;;1.20;;
22070;SDS011;11200;51.488;6.668;2022-09-20T01:09:06;3.40;;;1.48;;
22070;SDS011;11200;51.488;6.668;2022-09-20T01:11:32;2.85;;;1.40;;
22070;SDS011;11200;51.488;6.668;2022-09-20T01:13:59;2.20;;;1.02;;
22070;SDS011;11200;51.488;6.668;2022-09-20T01:16:25;2.03;;;1.20;;
22070;SDS011;11200;51.488;6.668;2022-09-20T01:18:51;2.35;;;1.35;;
22070;SDS011;11200;51.488;6.668;2022-09-20T01:21:20;1.77;;;1.10;;
22070;SDS011;11200;51.488;6.668;2022-09-20T01:26:51;3.35;;;1.25;;
22070;SDS011;11200;51.488;6.668;2022-09-20T01:32:02;2.28;;;1.23;;
22070;SDS011;11200;51.488;6.668;2022-09-20T01:34:34;2.78;;;1.52;;
22070;SDS011;11200;51.488;6.668;2022-09-20T01:37:15;2.75;;;1.38;;
22070;SDS011;11200;51.488;6.668;2022-09-20T01:42:35;1.67;;;1.17;;
22070;SDS011;11200;51.488;6.668;2022-09-20T02:04:33;3.70;;;1.27;;
22070;SDS011;11200;51.488;6.668;2022-09-20T02:12:54;4.30;;;1.40;;
22070;SDS011;11200;51.488;6.668;2022-09-20T02:15:33;3.17;;;1.52;;
22070;SDS011;11200;51.488;6.668;2022-09-20T02:24:03;2.95;;;1.20;;
22070;SDS011;11200;51.488;6.668;2022-09-20T02:32:48;2.40;;;1.30;;
22070;SDS011;11200;51.488;6.668;2022-09-20T03:00:24;1.77;;;1.38;;
22070;SDS011;11200;51.488;6.668;2022-09-20T03:06:03;1.85;;;1.25;;
22070;SDS011;11200;51.488;6.668;2022-09-20T03:11:22;3.35;;;1.35;;
22070;SDS011;11200;51.488;6.668;2022-09-20T03:30:59;2.63;;;1.25;;
22070;SDS011;11200;51.488;6.668;2022-09-20T03:39:35;2.22;;;1.25;;
22070;SDS011;11200;51.488;6.668;2022-09-20T03:42:28;4.38;;;1.52;;
22070;SDS011;11200;51.488;6.668;2022-09-20T03:51:46;1.60;;;1.30;;
22070;SDS011;11200;51.488;6.668;2022-09-20T03:54:02;3.03;;;1.38;;
22070;SDS011;11200;51.488;6.668;2022-09-20T04:05:16;1.63;;;1.15;;
22070;SDS011;11200;51.488;6.668;2022-09-20T04:13:38;3.35;;;1.40;;
22070;SDS011;11200;51.488;6.668;2022-09-20T04:19:08;3.40;;;1.70;;
22070;SDS011;11200;51.488;6.668;2022-09-20T04:22:10;2.13;;;1.42;;
22070;SDS011;11200;51.488;6.668;2022-09-20T04:27:11;2.05;;;1.30;;
22070;SDS011;11200;51.488;6.668;2022-09-20T04:34:58;3.42;;;1.40;;
22070;SDS011;11200;51.488;6.668;2022-09-20T04:38:04;2.85;;;1.40;;
22070;SDS011;11200;51.488;6.668;2022-09-20T04:41:06;2.28;;;1.20;;
22070;SDS011;11200;51.488;6.668;2022-09-20T04:49:44;3.15;;;1.48;;
22070;SDS011;11200;51.488;6.668;2022-09-20T05:20:44;2.90;;;1.40;;
22070;SDS011;11200;51.488;6.668;2022-09-20T05:28:55;2.92;;;1.35;;
22070;SDS011;11200;51.488;6.668;2022-09-20T05:34:38;2.95;;;1.73;;
22070;SDS011;11200;51.488;6.668;2022-09-20T05:45:19;3.00;;;1.52;;
22070;SDS011;11200;51.488;6.668;2022-09-20T05:57:13;2.55;;;1.40;;
22070;SDS011;11200;51.488;6.668;2022-09-20T06:05:26;2.63;;;1.70;;
22070;SDS011;11200;51.488;6.668;2022-09-20T06:08:06;2.63;;;1.70;;
22070;SDS011;11200;51.488;6.668;2022-09-20T06:11:03;2.28;;;1.60;;
22070;SDS011;11200;51.488;6.668;2022-09-20T06:13:56;2.25;;;1.60;;
22070;SDS011;11200;51.488;6.668;2022-09-20T06:17:03;2.78;;;1.42;;
22070;SDS011;11200;51.488;6.668;2022-09-20T06:19:43;2.05;;;1.55;;
22070;SDS011;11200;51.488;6.668;2022-09-20T06:22:23;2.03;;;1.48;;
22070;SDS011;11200;51.488;6.668;2022-09-20T06:27:36;3.28;;;1.70;;
22070;SDS011;11200;51.488;6.668;2022-09-20T06:30:13;5.28;;;2.03;;
22070;SDS011;11200;51.488;6.668;2022-09-20T06:33:00;3.30;;;1.83;;
22070;SDS011;11200;51.488;6.668;2022-09-20T06:41:11;2.85;;;1.75;;
22070;SDS011;11200;51.488;6.668;2022-09-20T06:44:00;3.03;;;1.80;;
22070;SDS011;11200;51.488;6.668;2022-09-20T06:46:27;2.58;;;1.60;;
22070;SDS011;11200;51.488;6.668;2022-09-20T06:48:55;3.13;;;1.52;;
22070;SDS011;11200;51.488;6.668;2022-09-20T06:51:22;4.22;;;1.90;;
22070;SDS011;11200;51.488;6.668;2022-09-20T06:53:50;2.55;;;1.88;;
22070;SDS011;11200;51.488;6.668;2022-09-20T06:56:21;2.22;;;1.65;;
22070;SDS011;11200;51.488;6.668;2022-09-20T06:58:49;2.97;;;1.85;;
22070;SDS011;11200;51.488;6.668;2022-09-20T07:01:16;1.95;;;1.48;;
22070;SDS011;11200;51.488;6.668;2022-09-20T07:03:42;2.72;;;1.50;;
22070;SDS011;11200;51.488;6.668;2022-09-20T07:06:08;3.58;;;1.63;;
22070;SDS011;11200;51.488;6.668;2022-09-20T07:08:34;4.38;;;1.58;;
22070;SDS011;11200;51.488;6.668;2022-09-20T07:11:04;3.28;;;1.58;;
22070;SDS011;11200;51.488;6.668;2022-09-20T07:13:43;2.38;;;1.50;;
22070;SDS011;11200;51.488;6.668;2022-09-20T07:16:13;4.07;;;1.60;;
22070;SDS011;11200;51.488;6.668;2022-09-20T07:18:39;3.45;;;1.80;;
22070;SDS011;11200;51.488;6.668;2022-09-20T07:21:05;4.28;;;1.80;;
22070;SDS011;11200;51.488;6.668;2022-09-20T07:23:33;3.97;;;1.85;;
22070;SDS011;11200;51.488;6.668;2022-09-20T07:25:59;2.10;;;1.50;;
22070;SDS011;11200;51.488;6.668;2022-09-20T07:28:28;3.17;;;1.63;;
22070;SDS011;11200;51.488;6.668;2022-09-20T07:30:55;3.30;;;2.00;;
22070;SDS011;11200;51.488;6.668;2022-09-20T07:33:21;2.35;;;1.65;;
22070;SDS011;11200;51.488;6.668;2022-09-20T07:35:49;3.35;;;1.60;;
22070;SDS011;11200;51.488;6.668;2022-09-20T07:38:18;2.67;;;1.55;;
22070;SDS011;11200;51.488;6.668;2022-09-20T07:40:45;2.38;;;1.83;;
22070;SDS011;11200;51.488;6.668;2022-09-20T07:43:17;2.72;;;1.60;;
22070;SDS011;11200;51.488;6.668;2022-09-20T07:45:43;4.55;;;1.70;;
22070;SDS011;11200;51.488;6.668;2022-09-20T07:48:08;3.28;;;1.58;;
22070;SDS011;11200;51.488;6.668;2022-09-20T07:50:34;2.97;;;1.50;;
22070;SDS011;11200;51.488;6.668;2022-09-20T07:53:00;3.33;;;1.58;;
22070;SDS011;11200;51.488;6.668;2022-09-20T07:55:26;3.28;;;1.70;;
22070;SDS011;11200;51.488;6.668;2022-09-20T07:57:52;4.28;;;1.63;;
22070;SDS011;11200;51.488;6.668;2022-09-20T08:00:19;4.15;;;1.70;;
22070;SDS011;11200;51.488;6.668;2022-09-20T08:02:44;2.00;;;1.40;;
22070;SDS011;11200;51.488;6.668;2022-09-20T08:05:10;2.42;;;1.50;;
22070;SDS011;11200;51.488;6.668;2022-09-20T08:07:36;3.15;;;1.70;;
22070;SDS011;11200;51.488;6.668;2022-09-20T08:10:03;3.55;;;1.95;;
22070;SDS011;11200;51.488;6.668;2022-09-20T08:12:29;5.47;;;1.70;;
22070;SDS011;11200;51.488;6.668;2022-09-20T08:14:56;2.38;;;1.50;;
22070;SDS011;11200;51.488;6.668;2022-09-20T08:17:22;3.83;;;1.80;;
22070;SDS011;11200;51.488;6.668;2022-09-20T08:19:48;3.20;;;1.80;;
22070;SDS011;11200;51.488;6.668;2022-09-20T08:22:16;2.70;;;1.65;;
22070;SDS011;11200;51.488;6.668;2022-09-20T08:24:42;4.45;;;1.60;;
22070;SDS011;11200;51.488;6.668;2022-09-20T08:27:08;3.20;;;1.90;;
22070;SDS011;11200;51.488;6.668;2022-09-20T08:29:33;3.05;;;1.77;;
22070;SDS011;11200;51.488;6.668;2022-09-20T08:31:59;3.05;;;1.77;;
22070;SDS011;11200;51.488;6.668;2022-09-20T08:34:26;2.22;;;1.58;;
22070;SDS011;11200;51.488;6.668;2022-09-20T08:36:51;3.10;;;1.90;;
22070;SDS011;11200;51.488;6.668;2022-09-20T08:39:20;5.07;;;1.65;;
22070;SDS011;11200;51.488;6.668;2022-09-20T08:41:47;2.67;;;1.50;;
22070;SDS011;11200;51.488;6.668;2022-09-20T08:44:23;2.55;;;1.50;;
22070;SDS011;11200;51.488;6.668;2022-09-20T08:47:13;3.15;;;1.48;;
22070;SDS011;11200;51.488;6.668;2022-09-20T08:49:49;3.00;;;1.20;;
22070;SDS011;11200;51.488;6.668;2022-09-20T08:52:27;3.20;;;1.58;;
22070;SDS011;11200;51.488;6.668;2022-09-20T08:54:57;2.90;;;1.40;;
22070;SDS011;11200;51.488;6.668;2022-09-20T08:57:26;3.08;;;1.20;;
22070;SDS011;11200;51.488;6.668;2022-09-20T08:59:56;3.35;;;1.50;;
22070;SDS011;11200;51.488;6.668;2022-09-20T09:02:23;3.45;;;1.33;;
22070;SDS011;11200;51.488;6.668;2022-09-20T09:04:48;2.10;;;1.27;;
22070;SDS011;11200;51.488;6.668;2022-09-20T09:07:17;2.53;;;1.40;;
22070;SDS011;11200;51.488;6.668;2022-09-20T09:09:45;2.30;;;1.30;;
22070;SDS011;11200;51.488;6.668;2022-09-20T09:12:15;1.88;;;1.27;;
22070;SDS011;11200;51.488;6.668;2022-09-20T09:14:47;2.70;;;1.08;;
22070;SDS011;11200;51.488;6.668;2022-09-20T09:17:19;2.85;;;1.30;;
22070;SDS011;11200;51.488;6.668;2022-09-20T09:19:54;1.83;;;1.15;;
22070;SDS011;11200;51.488;6.668;2022-09-20T09:25:05;1.20;;;0.90;;
22070;SDS011;11200;51.488;6.668;2022-09-20T09:27:32;2.17;;;1.02;;
22070;SDS011;11200;51.488;6.668;2022-09-20T09:29:59;2.97;;;0.98;;
22070;SDS011;11200;51.488;6.668;2022-09-20T09:32:26;2.30;;;1.20;;
22070;SDS011;11200;51.488;6.668;2022-09-20T09:34:55;2.97;;;1.23;;
22070;SDS011;11200;51.488;6.668;2022-09-20T09:37:33;3.00;;;1.00;;
22070;SDS011;11200;51.488;6.668;2022-09-20T09:40:06;2.03;;;1.05;;
22070;SDS011;11200;51.488;6.668;2022-09-20T09:42:44;2.85;;;1.13;;
22070;SDS011;11200;51.488;6.668;2022-09-20T09:45:23;2.78;;;1.17;;
22070;SDS011;11200;51.488;6.668;2022-09-20T09:47:50;3.85;;;1.30;;
22070;SDS011;11200;51.488;6.668;2022-09-20T09:50:24;2.88;;;1.23;;
22070;SDS011;11200;51.488;6.668;2022-09-20T09:53:05;2.55;;;1.17;;
22070;SDS011;11200;51.488;6.668;2022-09-20T10:01:04;3.58;;;1.10;;
22070;SDS011;11200;51.488;6.668;2022-09-20T10:06:37;3.22;;;1.33;;
22070;SDS011;11200;51.488;6.668;2022-09-20T10:12:32;3.63;;;1.10;;
22070;SDS011;11200;51.488;6.668;2022-09-20T10:36:32;3.30;;;0.90;;
22070;SDS011;11200;51.488;6.668;2022-09-20T10:39:18;3.10;;;0.80;;
22070;SDS011;11200;51.488;6.668;2022-09-20T10:50:19;2.58;;;1.00;;
22070;SDS011;11200;51.488;6.668;2022-09-20T10:53:06;2.10;;;0.82;;
22070;SDS011;11200;51.488;6.668;2022-09-20T10:55:41;3.33;;;1.00;;
22070;SDS011;11200;51.488;6.668;2022-09-20T11:00:59;2.25;;;0.88;;
22070;SDS011;11200;51.488;6.668;2022-09-20T11:09:22;2.78;;;1.02;;
22070;SDS011;11200;51.488;6.668;2022-09-20T11:11:58;2.10;;;0.60;;
22070;SDS011;11200;51.488;6.668;2022-09-20T11:14:40;2.47;;;0.82;;
22070;SDS011;11200;51.488;6.668;2022-09-20T11:25:03;1.33;;;0.70;;
22070;SDS011;11200;51.488;6.668;2022-09-20T11:28:08;1.55;;;0.60;;
22070;SDS011;11200;51.488;6.668;2022-09-20T11:30:43;1.80;;;0.63;;
22070;SDS011;11200;51.488;6.668;2022-09-20T11:33:47;1.27;;;0.70;;
22070;SDS011;11200;51.488;6.668;2022-09-20T11:36:56;1.88;;;0.80;;
22070;SDS011;11200;51.488;6.668;2022-09-20T11:39:24;1.90;;;0.77;;
22070;SDS011;11200;51.488;6.668;2022-09-20T11:42:18;1.83;;;0.93;;
22070;SDS011;11200;51.488;6.668;2022-09-20T11:44:47;1.92;;;0.70;;
22070;SDS011;11200;51.488;6.668;2022-09-20T11:47:25;1.20;;;0.70;;
22070;SDS011;11200;51.488;6.668;2022-09-20T11:58:46;1.58;;;0.63;;
22070;SDS011;11200;51.488;6.668;2022-09-20T12:01:35;1.13;;;0.70;;
22070;SDS011;11200;51.488;6.668;2022-09-20T12:06:33;3.22;;;0.70;;
22070;SDS011;11200;51.488;6.668;2022-09-20T12:09:06;2.05;;;0.77;;
22070;SDS011;11200;51.488;6.668;2022-09-20T12:11:50;2.13;;;0.80;;
22070;SDS011;11200;51.488;6.668;2022-09-20T12:14:21;2.50;;;0.65;;
22070;SDS011;11200;51.488;6.668;2022-09-20T12:16:50;2.28;;;0.70;;
22070;SDS011;11200;51.488;6.668;2022-09-20T12:26:50;2.60;;;0.90;;
22070;SDS011;11200;51.488;6.668;2022-09-20T12:31:49;1.00;;;0.77;;
22070;SDS011;11200;51.488;6.668;2022-09-20T12:39:19;1.58;;;0.80;;
22070;SDS011;11200;51.488;6.668;2022-09-20T12:49:56;1.92;;;0.68;;
22070;SDS011;11200;51.488;6.668;2022-09-20T12:56:15;2.20;;;0.90;;
22070;SDS011;11200;51.488;6.668;2022-09-20T12:58:33;0.77;;;0.60;;
22070;SDS011;11200;51.488;6.668;2022-09-20T13:03:31;1.77;;;0.70;;
22070;SDS011;11200;51.488;6.668;2022-09-20T13:19:24;2.28;;;1.00;;
22070;SDS011;11200;51.488;6.668;2022-09-20T13:24:25;1.65;;;0.70;;
22070;SDS011;11200;51.488;6.668;2022-09-20T13:26:54;2.67;;;0.70;;
22070;SDS011;11200;51.488;6.668;2022-09-20T13:29:32;1.13;;;0.60;;
22070;SDS011;11200;51.488;6.668;2022-09-20T13:32:17;1.67;;;0.68;;
22070;SDS011;11200;51.488;6.668;2022-09-20T13:37:37;1.80;;;0.90;;
22070;SDS011;11200;51.488;6.668;2022-09-20T13:40:21;2.55;;;0.90;;
22070;SDS011;11200;51.488;6.668;2022-09-20T13:43:02;1.27;;;0.80;;
22070;SDS011;11200;51.488;6.668;2022-09-20T13:45:42;1.38;;;0.70;;
22070;SDS011;11200;51.488;6.668;2022-09-20T13:48:08;1.92;;;0.80;;
22070;SDS011;11200;51.488;6.668;2022-09-20T13:50:34;1.98;;;0.85;;
22070;SDS011;11200;51.488;6.668;2022-09-20T13:53:11;1.00;;;0.68;;
22070;SDS011;11200;51.488;6.668;2022-09-20T13:55:40;1.65;;;0.85;;
22070;SDS011;11200;51.488;6.668;2022-09-20T13:58:08;2.72;;;0.80;;
22070;SDS011;11200;51.488;6.668;2022-09-20T14:00:44;1.63;;;0.70;;
22070;SDS011;11200;51.488;6.668;2022-09-20T14:03:15;1.98;;;0.77;;
22070;SDS011;11200;51.488;6.668;2022-09-20T14:05:45;2.47;;;0.70;;
22070;SDS011;11200;51.488;6.668;2022-09-20T14:08:15;2.42;;;0.80;;
22070;SDS011;11200;51.488;6.668;2022-09-20T14:10:46;2.13;;;0.90;;
22070;SDS011;11200;51.488;6.668;2022-09-20T14:13:14;1.48;;;0.82;;
22070;SDS011;11200;51.488;6.668;2022-09-20T14:15:42;1.38;;;0.73;;
22070;SDS011;11200;51.488;6.668;2022-09-20T14:18:15;1.77;;;0.73;;
22070;SDS011;11200;51.488;6.668;2022-09-20T14:20:42;2.08;;;0.90;;
22070;SDS011;11200;51.488;6.668;2022-09-20T14:23:23;1.77;;;0.70;;
22070;SDS011;11200;51.488;6.668;2022-09-20T14:28:31;1.52;;;0.70;;
22070;SDS011;11200;51.488;6.668;2022-09-20T14:31:07;1.67;;;0.80;;
22070;SDS011;11200;51.488;6.668;2022-09-20T14:33:42;1.42;;;0.68;;
22070;SDS011;11200;51.488;6.668;2022-09-20T14:36:14;1.38;;;0.60;;
22070;SDS011;11200;51.488;6.668;2022-09-20T14:38:43;3.40;;;0.90;;
22070;SDS011;11200;51.488;6.668;2022-09-20T14:41:11;2.15;;;0.98;;
22070;SDS011;11200;51.488;6.668;2022-09-20T14:43:37;1.65;;;0.80;;
22070;SDS011;11200;51.488;6.668;2022-09-20T14:46:05;1.75;;;0.80;;
22070;SDS011;11200;51.488;6.668;2022-09-20T14:48:39;2.10;;;0.80;;
22070;SDS011;11200;51.488;6.668;2022-09-20T14:53:41;2.58;;;0.90;;
22070;SDS011;11200;51.488;6.668;2022-09-20T14:56:09;3.40;;;0.90;;
22070;SDS011;11200;51.488;6.668;2022-09-20T15:01:43;2.15;;;0.90;;
22070;SDS011;11200;51.488;6.668;2022-09-20T15:04:37;2.03;;;0.85;;
22070;SDS011;11200;51.488;6.668;2022-09-20T15:07:05;2.85;;;1.00;;
22070;SDS011;11200;51.488;6.668;2022-09-20T15:09:32;1.77;;;0.80;;
22070;SDS011;11200;51.488;6.668;2022-09-20T15:14:29;1.27;;;0.80;;
22070;SDS011;11200;51.488;6.668;2022-09-20T15:16:55;2.72;;;0.93;;
22070;SDS011;11200;51.488;6.668;2022-09-20T15:19:22;1.58;;;0.70;;
22070;SDS011;11200;51.488;6.668;2022-09-20T15:21:47;2.67;;;0.90;;
22070;SDS011;11200;51.488;6.668;2022-09-20T15:24:13;1.83;;;0.90;;
22070;SDS011;11200;51.488;6.668;2022-09-20T15:26:41;2.05;;;0.77;;
22070;SDS011;11200;51.488;6.668;2022-09-20T15:29:11;2.03;;;0.80;;
22070;SDS011;11200;51.488;6.668;2022-09-20T15:31:40;1.75;;;0.85;;
22070;SDS011;11200;51.488;6.668;2022-09-20T15:34:05;3.53;;;0.90;;
22070;SDS011;11200;51.488;6.668;2022-09-20T15:36:31;1.75;;;0.80;;
22070;SDS011;11200;51.488;6.668;2022-09-20T15:38:57;3.45;;;1.00;;
22070;SDS011;11200;51.488;6.668;2022-09-20T15:41:22;1.98;;;0.90;;
22070;SDS011;11200;51.488;6.668;2022-09-20T15:43:48;2.60;;;1.00;;
22070;SDS011;11200;51.488;6.668;2022-09-20T15:46:20;2.90;;;1.20;;
22070;SDS011;11200;51.488;6.668;2022-09-20T15:48:50;3.63;;;1.10;;
22070;SDS011;11200;51.488;6.668;2022-09-20T15:51:16;5.22;;;0.95;;
22070;SDS011;11200;51.488;6.668;2022-09-20T15:53:43;3.05;;;1.10;;
22070;SDS011;11200;51.488;6.668;2022-09-20T15:56:20;3.42;;;1.33;;
22070;SDS011;11200;51.488;6.668;2022-09-20T15:58:48;3.95;;;0.90;;
22070;SDS011;11200;51.488;6.668;2022-09-20T16:01:45;3.15;;;0.98;;
22070;SDS011;11200;51.488;6.668;2022-09-20T16:04:13;3.50;;;1.10;;
22070;SDS011;11200;51.488;6.668;2022-09-20T16:06:41;2.08;;;1.00;;
22070;SDS011;11200;51.488;6.668;2022-09-20T16:09:08;3.08;;;1.10;;
22070;SDS011;11200;51.488;6.668;2022-09-20T16:11:34;2.58;;;1.00;;
22070;SDS011;11200;51.488;6.668;2022-09-20T16:14:00;2.67;;;1.05;;
22070;SDS011;11200;51.488;6.668;2022-09-20T16:16:27;3.88;;;1.20;;
22070;SDS011;11200;51.488;6.668;2022-09-20T16:18:54;2.65;;;0.85;;
22070;SDS011;11200;51.488;6.668;2022-09-20T16:21:39;2.78;;;0.90;;
22070;SDS011;11200;51.488;6.668;2022-09-20T16:24:06;3.08;;;1.00;;
22070;SDS011;11200;51.488;6.668;2022-09-20T16:26:33;2.85;;;1.20;;
22070;SDS011;11200;51.488;6.668;2022-09-20T16:29:00;2.88;;;0.93;;
22070;SDS011;11200;51.488;6.668;2022-09-20T16:34:25;2.30;;;1.00;;
22070;SDS011;11200;51.488;6.668;2022-09-20T16:37:00;3.03;;;1.02;;
22070;SDS011;11200;51.488;6.668;2022-09-20T16:39:30;3.03;;;1.10;;
22070;SDS011;11200;51.488;6.668;2022-09-20T16:41:59;2.50;;;1.00;;
22070;SDS011;11200;51.488;6.668;2022-09-20T16:44:28;3.38;;;1.10;;
22070;SDS011;11200;51.488;6.668;2022-09-20T16:46:55;3.35;;;1.10;;
22070;SDS011;11200;51.488;6.668;2022-09-20T16:49:21;3.33;;;1.20;;
22070;SDS011;11200;51.488;6.668;2022-09-20T16:51:50;3.38;;;1.17;;
22070;SDS011;11200;51.488;6.668;2022-09-20T16:54:16;3.05;;;1.05;;
22070;SDS011;11200;51.488;6.668;2022-09-20T16:56:43;2.95;;;1.00;;
22070;SDS011;11200;51.488;6.668;2022-09-20T16:59:13;3.05;;;1.23;;
22070;SDS011;11200;51.488;6.668;2022-09-20T17:01:40;4.70;;;1.17;;
22070;SDS011;11200;51.488;6.668;2022-09-20T17:04:06;2.83;;;1.10;;
22070;SDS011;11200;51.488;6.668;2022-09-20T17:06:34;3.10;;;1.30;;
22070;SDS011;11200;51.488;6.668;2022-09-20T17:09:01;3.67;;;1.10;;
22070;SDS011;11200;51.488;6.668;2022-09-20T17:11:29;2.15;;;1.00;;
22070;SDS011;11200;51.488;6.668;2022-09-20T17:13:57;2.55;;;1.02;;
22070;SDS011;11200;51.488;6.668;2022-09-20T17:16:24;2.03;;;0.85;;
22070;SDS011;11200;51.488;6.668;2022-09-20T17:18:58;4.22;;;1.30;;
22070;SDS011;11200;51.488;6.668;2022-09-20T17:21:26;3.63;;;1.30;;
22070;SDS011;11200;51.488;6.668;2022-09-20T17:23:53;1.65;;;0.88;;
22070;SDS011;11200;51.488;6.668;2022-09-20T17:28:49;3.00;;;1.00;;
22070;SDS011;11200;51.488;6.668;2022-09-20T17:31:16;3.28;;;1.20;;
22070;SDS011;11200;51.488;6.668;2022-09-20T17:33:48;2.83;;;1.08;;
22070;SDS011;11200;51.488;6.668;2022-09-20T17:36:15;2.13;;;0.90;;
22070;SDS011;11200;51.488;6.668;2022-09-20T17:38:46;2.30;;;1.05;;
22070;SDS011;11200;51.488;6.668;2022-09-20T17:41:17;1.95;;;1.10;;
22070;SDS011;11200;51.488;6.668;2022-09-20T17:43:44;2.70;;;0.90;;
22070;SDS011;11200;51.488;6.668;2022-09-20T17:46:12;2.22;;;1.00;;
22070;SDS011;11200;51.488;6.668;2022-09-20T17:48:44;2.28;;;1.10;;
22070;SDS011;11200;51.488;6.668;2022-09-20T17:51:18;2.38;;;0.90;;
22070;SDS011;11200;51.488;6.668;2022-09-20T17:53:47;2.75;;;0.93;;
22070;SDS011;11200;51.488;6.668;2022-09-20T17:56:13;1.45;;;0.95;;
22070;SDS011;11200;51.488;6.668;2022-09-20T17:58:39;1.50;;;1.05;;
22070;SDS011;11200;51.488;6.668;2022-09-20T18:01:07;1.08;;;0.88;;
22070;SDS011;11200;51.488;6.668;2022-09-20T18:03:39;4.32;;;0.82;;
22070;SDS011;11200;51.488;6.668;2022-09-20T18:06:13;2.67;;;1.00;;
22070;SDS011;11200;51.488;6.668;2022-09-20T18:08:51;2.83;;;0.90;;
22070;SDS011;11200;51.488;6.668;2022-09-20T18:11:34;2.05;;;0.90;;
22070;SDS011;11200;51.488;6.668;2022-09-20T18:14:03;1.70;;;0.93;;
22070;SDS011;11200;51.488;6.668;2022-09-20T18:16:30;1.75;;;0.93;;
22070;SDS011;11200;51.488;6.668;2022-09-20T18:18:56;1.63;;;1.00;;
22070;SDS011;11200;51.488;6.668;2022-09-20T18:21:23;3.40;;;1.10;;
22070;SDS011;11200;51.488;6.668;2022-09-20T18:23:51;2.08;;;1.00;;
22070;SDS011;11200;51.488;6.668;2022-09-20T18:26:18;1.60;;;0.90;;
22070;SDS011;11200;51.488;6.668;2022-09-20T18:31:20;4.45;;;1.20;;
22070;SDS011;11200;51.488;6.668;2022-09-20T18:33:47;2.63;;;1.10;;
22070;SDS011;11200;51.488;6.668;2022-09-20T18:36:16;2.22;;;1.13;;
22070;SDS011;11200;51.488;6.668;2022-09-20T18:38:43;2.30;;;0.93;;
22070;SDS011;11200;51.488;6.668;2022-09-20T18:41:09;2.38;;;0.90;;
22070;SDS011;11200;51.488;6.668;2022-09-20T18:43:37;1.77;;;0.98;;
22070;SDS011;11200;51.488;6.668;2022-09-20T18:46:06;2.30;;;1.10;;
22070;SDS011;11200;51.488;6.668;2022-09-20T18:48:34;1.65;;;1.00;;
22070;SDS011;11200;51.488;6.668;2022-09-20T18:51:02;4.10;;;1.08;;
22070;SDS011;11200;51.488;6.668;2022-09-20T18:53:33;2.13;;;0.90;;
22070;SDS011;11200;51.488;6.668;2022-09-20T18:56:04;4.32;;;0.95;;
22070;SDS011;11200;51.488;6.668;2022-09-20T18:58:51;1.10;;;0.88;;
22070;SDS011;11200;51.488;6.668;2022-09-20T19:06:30;1.92;;;0.90;;
22070;SDS011;11200;51.488;6.668;2022-09-20T19:09:05;1.88;;;0.90;;
22070;SDS011;11200;51.488;6.668;2022-09-20T19:11:46;1.50;;;1.10;;
22070;SDS011;11200;51.488;6.668;2022-09-20T19:17:11;2.00;;;1.00;;
22070;SDS011;11200;51.488;6.668;2022-09-20T19:22:48;2.13;;;1.02;;
22070;SDS011;11200;51.488;6.668;2022-09-20T19:25:19;2.03;;;1.05;;
22070;SDS011;11200;51.488;6.668;2022-09-20T19:27:52;2.53;;;1.00;;
22070;SDS011;11200;51.488;6.668;2022-09-20T19:30:18;2.30;;;1.20;;
22070;SDS011;11200;51.488;6.668;2022-09-20T19:32:44;2.38;;;0.90;;
22070;SDS011;11200;51.488;6.668;2022-09-20T19:35:18;2.00;;;0.80;;
22070;SDS011;11200;51.488;6.668;2022-09-20T19:38:02;2.65;;;1.23;;
22070;SDS011;11200;51.488;6.668;2022-09-20T19:41:00;2.67;;;0.93;;
22070;SDS011;11200;51.488;6.668;2022-09-20T19:51:06;3.00;;;1.20;;
22070;SDS011;11200;51.488;6.668;2022-09-20T19:53:35;2.95;;;1.08;;
22070;SDS011;11200;51.488;6.668;2022-09-20T19:58:50;2.47;;;1.05;;
22070;SDS011;11200;51.488;6.668;2022-09-20T20:01:18;1.50;;;1.00;;
22070;SDS011;11200;51.488;6.668;2022-09-20T20:03:46;2.50;;;1.20;;
22070;SDS011;11200;51.488;6.668;2022-09-20T20:08:58;2.42;;;1.00;;
22070;SDS011;11200;51.488;6.668;2022-09-20T20:11:53;2.17;;;1.25;;
22070;SDS011;11200;51.488;6.668;2022-09-20T20:14:47;4.25;;;1.10;;
22070;SDS011;11200;51.488;6.668;2022-09-20T20:25:43;2.45;;;0.98;;
22070;SDS011;11200;51.488;6.668;2022-09-20T20:28:26;1.98;;;0.90;;
22070;SDS011;11200;51.488;6.668;2022-09-20T20:30:52;2.85;;;1.10;;
22070;SDS011;11200;51.488;6.668;2022-09-20T20:33:18;2.78;;;1.25;;
22070;SDS011;11200;51.488;6.668;2022-09-20T20:35:50;2.45;;;1.20;;
22070;SDS011;11200;51.488;6.668;2022-09-20T20:38:18;4.35;;;1.10;;
22070;SDS011;11200;51.488;6.668;2022-09-20T20:40:44;2.08;;;1.20;;
22070;SDS011;11200;51.488;6.668;2022-09-20T20:43:10;1.67;;;1.05;;
22070;SDS011;11200;51.488;6.668;2022-09-20T20:45:35;1.40;;;1.10;;
22070;SDS011;11200;51.488;6.668;2022-09-20T20:48:02;2.25;;;1.25;;
22070;SDS011;11200;51.488;6.668;2022-09-20T20:50:28;2.88;;;1.10;;
22070;SDS011;11200;51.488;6.668;2022-09-20T20:52:54;2.42;;;1.27;;
22070;SDS011;11200;51.488;6.668;2022-09-20T20:55:20;1.60;;;1.08;;
22070;SDS011;11200;51.488;6.668;2022-09-20T20:57:53;2.67;;;1.23;;
22070;SDS011;11200;51.488;6.668;2022-09-20T21:00:24;2.05;;;1.10;;
22070;SDS011;11200;51.488;6.668;2022-09-20T21:03:00;2.80;;;1.25;;
22070;SDS011;11200;51.488;6.668;2022-09-20T21:05:27;1.95;;;1.20;;
22070;SDS011;11200;51.488;6.668;2022-09-20T21:07:53;1.85;;;1.02;;
22070;SDS011;11200;51.488;6.668;2022-09-20T21:10:19;3.30;;;1.52;;
22070;SDS011;11200;51.488;6.668;2022-09-20T21:12:46;1.52;;;1.20;;
22070;SDS011;11200;51.488;6.668;2022-09-20T21:15:17;1.80;;;1.27;;
22070;SDS011;11200;51.488;6.668;2022-09-20T21:17:42;2.70;;;1.25;;
22070;SDS011;11200;51.488;6.668;2022-09-20T21:20:17;2.05;;;1.30;;
22070;SDS011;11200;51.488;6.668;2022-09-20T21:22:44;3.20;;;1.40;;
22070;SDS011;11200;51.488;6.668;2022-09-20T21:25:09;2.45;;;1.40;;
22070;SDS011;11200;51.488;6.668;2022-09-20T21:27:35;3.10;;;1.50;;
22070;SDS011;11200;51.488;6.668;2022-09-20T21:30:01;2.78;;;1.50;;
22070;SDS011;11200;51.488;6.668;2022-09-20T21:32:27;2.42;;;1.30;;